Time;durP1;ratioP1;P1;durP2;ratioP2;P2;SDS_P1;SDS_P2;PMS_P1;PMS_P2;Temp;Humidity;BMP_temperature;BMP_pressure;BME280_temperature;BME280_humidity;BME280_pressure;Samples;Min_cycle;Max_cycle;Signal;HPM_P1;HPM_P2
2021/03/31 00:00:29;;;;;;;14.55;9.50;;;;;;;7.92;43.74;100939.59;1726889;81;22233;-62
2021/03/31 00:02:58;;;;;;;14.38;8.45;;;;;;;7.91;43.69;100936.62;1742954;81;21134;-62
2021/03/31 00:05:27;;;;;;;13.55;10.23;;;;;;;7.88;43.81;100939.18;1756619;81;21141;-66
2021/03/31 00:07:55;;;;;;;13.03;8.50;;;;;;;7.87;43.83;100928.98;1764988;81;21209;-60
2021/03/31 00:10:36;;;;;;;10.13;7.55;;;;;;;7.82;43.94;100939.98;1758271;81;21117;-62
2021/03/31 00:13:04;;;;;;;13.65;7.42;;;;;;;7.82;43.94;100940.80;1766487;81;21388;-62
2021/03/31 00:15:32;;;;;;;14.68;9.33;;;;;;;7.81;43.87;100935.16;1766636;79;21160;-61
2021/03/31 00:18:05;;;;;;;13.32;9.38;;;;;;;7.81;43.93;100933.00;1767018;81;21585;-61
2021/03/31 00:20:35;;;;;;;13.72;9.90;;;;;;;7.80;44.06;100934.84;1767515;81;21578;-62
2021/03/31 00:23:06;;;;;;;12.23;9.13;;;;;;;7.80;44.09;100930.83;1767241;81;21413;-62
2021/03/31 00:25:36;;;;;;;10.82;8.15;;;;;;;7.81;43.90;100935.67;1760992;81;21004;-63
2021/03/31 00:28:06;;;;;;;13.05;9.13;;;;;;;7.82;43.94;100931.44;1745937;81;21579;-62
2021/03/31 00:30:34;;;;;;;12.45;7.80;;;;;;;7.78;44.20;100934.72;1738756;81;21039;-63
2021/03/31 00:33:02;;;;;;;10.18;8.50;;;;;;;7.76;44.25;100932.77;1736735;82;21182;-62
2021/03/31 00:35:33;;;;;;;20.55;10.90;;;;;;;7.74;44.12;100933.47;1751836;81;21153;-62
2021/03/31 00:38:02;;;;;;;16.17;10.35;;;;;;;7.75;44.07;100933.28;1767125;81;21911;-62
2021/03/31 00:40:42;;;;;;;13.65;8.85;;;;;;;7.76;44.11;100922.06;1766121;81;21567;-64
2021/03/31 00:43:10;;;;;;;13.62;10.20;;;;;;;7.79;44.08;100927.00;1759345;81;21186;-62
2021/03/31 00:45:39;;;;;;;15.88;9.35;;;;;;;7.77;44.11;100915.68;1736806;81;21182;-64
2021/03/31 00:48:16;;;;;;;17.35;9.65;;;;;;;7.75;44.21;100925.25;1736744;82;21733;-62
2021/03/31 00:50:55;;;;;;;15.85;12.03;;;;;;;7.75;44.08;100917.72;1737621;81;22192;-62
2021/03/31 00:53:32;;;;;;;13.65;10.10;;;;;;;7.72;44.39;100915.45;1736671;81;21627;-63
2021/03/31 00:56:00;;;;;;;12.43;8.60;;;;;;;7.71;44.34;100918.64;1742464;81;21142;-62
2021/03/31 00:58:28;;;;;;;14.03;9.35;;;;;;;7.72;44.36;100911.44;1711657;82;21176;-63
2021/03/31 01:00:55;;;;;;;10.88;6.87;;;;;;;7.71;44.45;100913.29;1736955;82;21137;-61
2021/03/31 01:03:23;;;;;;;14.28;9.05;;;;;;;7.73;44.56;100915.75;1738927;81;21283;-63
2021/03/31 01:05:50;;;;;;;11.70;9.43;;;;;;;7.72;44.78;100912.23;1736638;82;21162;-62
2021/03/31 01:08:18;;;;;;;12.55;9.43;;;;;;;7.72;45.03;100909.56;1744256;81;21196;-65
2021/03/31 01:10:49;;;;;;;14.80;10.43;;;;;;;7.72;45.02;100903.41;1764953;81;21156;-63
2021/03/31 01:13:38;;;;;;;17.00;9.98;;;;;;;7.68;45.15;100896.27;1765743;81;21136;-64
2021/03/31 01:16:27;;;;;;;12.80;8.75;;;;;;;7.66;45.44;100899.67;1764068;81;21196;-64
2021/03/31 01:19:06;;;;;;;10.43;7.95;;;;;;;7.69;45.45;100895.76;1764723;81;21113;-62
2021/03/31 01:22:15;;;;;;;16.10;10.88;;;;;;;7.67;45.66;100889.80;1764735;81;21023;-63
2021/03/31 01:25:15;;;;;;;13.18;9.63;;;;;;;7.65;45.86;100883.30;1766697;80;21145;-62
2021/03/31 01:28:14;;;;;;;12.70;9.43;;;;;;;7.62;46.49;100881.54;1764706;81;21168;-63
2021/03/31 01:31:09;;;;;;;14.70;10.58;;;;;;;7.61;46.67;100879.88;1764759;81;21384;-62
2021/03/31 01:33:48;;;;;;;15.75;9.90;;;;;;;7.59;46.90;100880.07;1740162;81;26685;-67
2021/03/31 01:36:17;;;;;;;15.48;10.60;;;;;;;7.58;46.82;100876.28;1748953;82;21125;-63
2021/03/31 01:38:49;;;;;;;15.03;11.38;;;;;;;7.57;47.00;100874.11;1748929;82;21146;-62
2021/03/31 01:41:19;;;;;;;15.47;11.67;;;;;;;7.53;47.42;100872.05;1749543;82;21129;-62
2021/03/31 01:43:52;;;;;;;14.13;10.13;;;;;;;7.49;47.73;100873.44;1751083;81;21214;-62
2021/03/31 01:46:22;;;;;;;18.37;10.82;;;;;;;7.42;47.81;100872.09;1731833;82;21617;-62
2021/03/31 01:48:50;;;;;;;13.90;9.98;;;;;;;7.35;47.90;100856.00;1737487;81;20998;-63
2021/03/31 01:51:17;;;;;;;16.23;11.15;;;;;;;7.34;48.04;100859.70;1753692;81;21689;-64
2021/03/31 01:53:47;;;;;;;18.73;12.07;;;;;;;7.36;48.32;100860.34;1729111;81;21054;-62
2021/03/31 01:56:14;;;;;;;11.97;10.18;;;;;;;7.32;48.53;100852.40;1757466;81;21397;-62
2021/03/31 01:58:42;;;;;;;17.77;11.97;;;;;;;7.32;48.72;100848.90;1753322;81;21091;-60
2021/03/31 02:01:15;;;;;;;13.95;9.70;;;;;;;7.33;49.04;100854.06;1736071;81;21775;-61
2021/03/31 02:03:44;;;;;;;14.10;10.55;;;;;;;7.35;49.16;100849.82;1750644;81;21141;-62
2021/03/31 02:06:13;;;;;;;13.05;10.23;;;;;;;7.33;49.19;100856.73;1726818;82;21244;-58
2021/03/31 02:08:41;;;;;;;15.78;12.58;;;;;;;7.30;49.70;100861.13;1738750;81;21208;-60
2021/03/31 02:11:10;;;;;;;16.12;10.65;;;;;;;7.25;49.99;100853.38;1724181;81;21034;-60
2021/03/31 02:13:40;;;;;;;12.53;11.05;;;;;;;7.23;49.79;100850.09;1766443;81;21670;-60
2021/03/31 02:16:07;;;;;;;17.80;10.18;;;;;;;7.20;50.23;100845.95;1766267;81;21172;-61
2021/03/31 02:18:34;;;;;;;16.50;12.13;;;;;;;7.18;50.48;100847.19;1766355;81;21176;-60
2021/03/31 02:21:04;;;;;;;15.60;10.63;;;;;;;7.17;50.86;100846.87;1766385;81;21341;-60
2021/03/31 02:23:34;;;;;;;16.90;11.33;;;;;;;7.13;51.33;100852.31;1745315;81;21702;-62
2021/03/31 02:26:02;;;;;;;14.45;10.13;;;;;;;7.09;51.19;100846.55;1720212;81;21193;-59
2021/03/31 02:28:31;;;;;;;14.73;10.13;;;;;;;7.10;51.35;100840.69;1735926;82;21204;-60
2021/03/31 02:30:58;;;;;;;14.65;10.70;;;;;;;7.09;51.68;100839.86;1736078;81;21693;-60
2021/03/31 02:33:27;;;;;;;14.70;11.03;;;;;;;7.09;52.27;100835.02;1749678;81;21384;-60
2021/03/31 02:35:55;;;;;;;17.10;12.00;;;;;;;7.04;53.46;100836.13;1748778;82;21591;-61
2021/03/31 02:38:24;;;;;;;15.32;11.73;;;;;;;6.92;54.20;100842.53;1759630;81;21168;-60
2021/03/31 02:40:52;;;;;;;16.42;11.75;;;;;;;6.86;54.34;100834.78;1737996;81;21650;-61
2021/03/31 02:43:21;;;;;;;14.15;10.18;;;;;;;6.86;54.99;100837.45;1765975;81;21611;-62
2021/03/31 02:45:52;;;;;;;19.27;10.82;;;;;;;6.86;55.58;100837.96;1766273;81;21408;-61
2021/03/31 02:48:20;;;;;;;20.75;12.98;;;;;;;6.81;56.61;100841.23;1766033;81;21157;-61
2021/03/31 02:50:49;;;;;;;17.62;12.10;;;;;;;6.76;56.50;100845.00;1752567;81;21205;-61
2021/03/31 02:53:17;;;;;;;17.30;12.63;;;;;;;6.75;56.63;100839.88;1760448;81;21148;-61
2021/03/31 02:55:46;;;;;;;16.17;11.93;;;;;;;6.65;57.20;100838.89;1753092;81;21062;-60
2021/03/31 02:58:13;;;;;;;15.98;11.95;;;;;;;6.64;57.73;100842.58;1717826;82;21396;-61
2021/03/31 03:00:41;;;;;;;19.10;12.88;;;;;;;6.63;57.55;100838.75;1744466;81;21153;-61
2021/03/31 03:03:11;;;;;;;16.10;11.97;;;;;;;6.63;57.57;100831.56;1766551;81;21149;-59
2021/03/31 03:05:38;;;;;;;16.35;13.72;;;;;;;6.60;58.00;100827.95;1766983;81;21157;-61
2021/03/31 03:08:06;;;;;;;15.65;11.15;;;;;;;6.57;57.85;100822.98;1766605;81;21549;-60
2021/03/31 03:10:33;;;;;;;15.13;11.15;;;;;;;6.56;58.32;100819.52;1766342;81;21440;-61
2021/03/31 03:13:03;;;;;;;16.80;11.50;;;;;;;6.53;58.71;100817.72;1751706;81;21149;-59
2021/03/31 03:15:32;;;;;;;13.00;11.25;;;;;;;6.47;58.98;100816.69;1749165;81;21722;-60
2021/03/31 03:18:03;;;;;;;22.13;13.03;;;;;;;6.45;58.96;100809.36;1750490;81;21054;-61
2021/03/31 03:20:30;;;;;;;13.85;11.10;;;;;;;6.42;58.82;100812.43;1754293;81;21196;-62
2021/03/31 03:22:58;;;;;;;17.15;13.03;;;;;;;6.41;59.00;100806.77;1757271;81;21213;-62
2021/03/31 03:25:26;;;;;;;17.17;12.03;;;;;;;6.39;59.26;100811.47;1768943;81;21600;-63
2021/03/31 03:27:53;;;;;;;19.45;12.80;;;;;;;6.30;59.89;100807.80;1749393;82;21007;-63
2021/03/31 03:30:23;;;;;;;16.82;12.07;;;;;;;6.29;59.61;100805.63;1770172;81;21254;-64
2021/03/31 03:32:51;;;;;;;16.73;11.05;;;;;;;6.34;59.50;100807.72;1751164;81;21169;-62
2021/03/31 03:35:24;;;;;;;20.95;13.05;;;;;;;6.29;60.37;100808.30;1747361;82;22114;-62
2021/03/31 03:37:51;;;;;;;17.10;11.93;;;;;;;6.27;60.13;100809.03;1736525;82;21122;-63
2021/03/31 03:40:25;;;;;;;17.95;12.13;;;;;;;6.28;60.25;100805.84;1736321;82;21140;-63
2021/03/31 03:42:52;;;;;;;18.15;13.18;;;;;;;6.28;60.29;100804.52;1745884;82;21177;-62
2021/03/31 03:45:23;;;;;;;21.30;12.50;;;;;;;6.28;60.71;100813.86;1737314;82;21117;-62
2021/03/31 03:47:54;;;;;;;16.45;12.03;;;;;;;6.26;60.44;100812.71;1768983;81;21214;-64
2021/03/31 03:50:23;;;;;;;16.48;13.00;;;;;;;6.21;61.70;100812.97;1726722;82;22082;-63
2021/03/31 03:52:51;;;;;;;16.10;10.88;;;;;;;6.16;61.70;100808.72;1712593;82;21177;-64
2021/03/31 03:55:24;;;;;;;17.45;13.72;;;;;;;6.17;61.47;100814.38;1738022;81;21155;-63
2021/03/31 03:57:54;;;;;;;17.12;12.90;;;;;;;6.12;62.18;100813.13;1746316;82;21176;-65
2021/03/31 04:00:24;;;;;;;17.17;12.60;;;;;;;6.12;62.18;100813.13;1751183;82;21241;-63
2021/03/31 04:02:53;;;;;;;18.67;11.38;;;;;;;6.11;62.75;100811.97;1751053;82;21217;-63
2021/03/31 04:05:21;;;;;;;23.00;13.45;;;;;;;6.03;63.96;100800.94;1751261;82;21552;-64
2021/03/31 04:07:49;;;;;;;19.87;12.78;;;;;;;5.98;64.44;100798.52;1750761;82;21197;-61
2021/03/31 04:10:20;;;;;;;17.48;12.15;;;;;;;5.94;64.73;100800.76;1750819;81;21574;-62
2021/03/31 04:12:51;;;;;;;15.93;12.25;;;;;;;5.94;64.73;100800.76;1751001;81;21050;-63
2021/03/31 04:15:19;;;;;;;16.42;13.30;;;;;;;5.90;65.00;100795.45;1750673;82;21260;-62
2021/03/31 04:17:46;;;;;;;20.77;13.28;;;;;;;5.88;65.61;100798.02;1759135;81;21606;-61
2021/03/31 04:20:16;;;;;;;20.80;15.63;;;;;;;5.87;66.02;100799.86;1786161;80;21188;-62
2021/03/31 04:22:46;;;;;;;16.90;13.38;;;;;;;5.87;66.02;100799.86;1786068;80;21142;-62
2021/03/31 04:25:17;;;;;;;19.17;13.48;;;;;;;5.86;66.11;100792.00;1759419;80;21364;-63
2021/03/31 04:27:49;;;;;;;21.80;14.93;;;;;;;5.88;65.86;100792.68;1788758;80;21149;-61
2021/03/31 04:30:19;;;;;;;20.15;12.15;;;;;;;5.86;66.06;100783.99;1786291;80;21102;-62
2021/03/31 04:32:50;;;;;;;16.45;13.48;;;;;;;5.87;65.90;100785.17;1786244;80;21125;-64
2021/03/31 04:35:20;;;;;;;17.95;13.98;;;;;;;5.90;66.02;100783.98;1787312;80;21580;-63
2021/03/31 04:37:49;;;;;;;18.60;12.85;;;;;;;5.93;65.82;100783.58;1777865;80;21474;-62
2021/03/31 04:40:19;;;;;;;15.72;12.50;;;;;;;5.95;65.61;100783.69;1769820;81;21137;-64
2021/03/31 04:42:47;;;;;;;14.98;11.97;;;;;;;5.95;65.70;100785.03;1763903;80;21047;-63
2021/03/31 04:45:16;;;;;;;22.32;13.43;;;;;;;5.99;65.84;100788.98;1756031;80;21166;-64
2021/03/31 04:47:44;;;;;;;17.67;13.32;;;;;;;6.01;65.75;100792.28;1759342;81;21104;-63
2021/03/31 04:50:13;;;;;;;19.40;11.70;;;;;;;6.04;65.45;100793.21;1759375;81;21214;-64
2021/03/31 04:52:41;;;;;;;16.00;11.60;;;;;;;6.06;65.31;100786.35;1759251;81;21021;-63
2021/03/31 04:55:12;;;;;;;20.92;14.85;;;;;;;6.07;65.22;100784.83;1760725;80;21215;-62
2021/03/31 04:57:40;;;;;;;15.53;11.53;;;;;;;6.03;65.35;100783.58;1756706;81;21126;-62
2021/03/31 05:00:09;;;;;;;15.75;12.53;;;;;;;6.03;65.35;100783.58;1756611;81;21158;-62
2021/03/31 05:02:38;;;;;;;17.95;14.70;;;;;;;6.02;65.99;100781.91;1756637;81;21454;-63
2021/03/31 05:05:08;;;;;;;21.30;14.20;;;;;;;6.02;65.99;100781.91;1760105;80;21640;-63
2021/03/31 05:07:36;;;;;;;15.65;12.95;;;;;;;5.99;66.09;100778.31;1776191;80;21224;-61
2021/03/31 05:10:05;;;;;;;19.65;14.33;;;;;;;5.99;66.17;100783.65;1774063;80;21208;-63
2021/03/31 05:12:33;;;;;;;18.73;15.05;;;;;;;5.97;66.19;100784.34;1756663;81;21143;-62
2021/03/31 05:15:01;;;;;;;19.25;13.28;;;;;;;5.98;66.19;100775.31;1758973;79;22299;-64
2021/03/31 05:17:28;;;;;;;21.17;16.25;;;;;;;5.98;66.19;100775.31;1748939;82;21177;-63
2021/03/31 05:19:55;;;;;;;20.82;15.55;;;;;;;6.02;66.43;100777.91;1753481;81;21646;-62
2021/03/31 05:22:23;;;;;;;23.77;14.85;;;;;;;6.05;66.27;100785.52;1786173;80;21213;-62
2021/03/31 05:24:52;;;;;;;19.95;15.23;;;;;;;6.07;66.84;100775.99;1783954;80;21188;-62
2021/03/31 05:27:19;;;;;;;20.40;14.47;;;;;;;6.07;66.84;100775.99;1769516;81;21202;-62
2021/03/31 05:29:49;;;;;;;22.32;14.30;;;;;;;6.10;66.87;100772.92;1769436;81;21253;-62
2021/03/31 05:32:17;;;;;;;20.88;15.72;;;;;;;6.06;68.10;100767.16;1769556;81;21607;-63
2021/03/31 05:34:45;;;;;;;20.75;13.98;;;;;;;6.06;68.10;100767.16;1763597;81;21144;-62
2021/03/31 05:37:14;;;;;;;20.35;14.90;;;;;;;6.03;68.46;100766.22;1761720;81;21124;-64
2021/03/31 05:39:42;;;;;;;24.63;16.17;;;;;;;6.00;68.28;100767.09;1763946;81;21212;-62
2021/03/31 05:42:11;;;;;;;24.63;15.83;;;;;;;5.95;68.77;100762.84;1760153;81;21199;-63
2021/03/31 05:44:38;;;;;;;23.98;15.63;;;;;;;5.95;68.77;100762.84;1769835;81;21141;-63
2021/03/31 05:47:07;;;;;;;18.50;15.10;;;;;;;5.97;68.79;100763.48;1786247;80;21117;-63
2021/03/31 05:49:35;;;;;;;24.40;15.45;;;;;;;5.95;68.94;100760.17;1764815;81;21201;-63
2021/03/31 05:52:06;;;;;;;18.23;15.25;;;;;;;5.95;68.94;100760.17;1786212;80;21396;-64
2021/03/31 05:54:35;;;;;;;23.45;15.60;;;;;;;5.97;68.93;100759.48;1786124;80;21263;-62
2021/03/31 05:57:04;;;;;;;22.52;15.23;;;;;;;6.01;68.81;100753.55;1781072;80;21117;-62
2021/03/31 05:59:33;;;;;;;19.05;15.18;;;;;;;6.06;68.66;100763.15;1757707;81;21141;-63
2021/03/31 06:02:01;;;;;;;21.02;15.40;;;;;;;6.15;68.23;100751.80;1766252;81;21823;-63
2021/03/31 06:04:29;;;;;;;25.85;17.02;;;;;;;6.23;68.06;100746.33;1738113;81;21312;-62
2021/03/31 06:06:57;;;;;;;24.77;16.67;;;;;;;6.27;68.03;100750.77;1765478;81;21129;-64
2021/03/31 06:09:26;;;;;;;22.00;14.43;;;;;;;6.30;67.95;100755.70;1766670;79;21143;-63
2021/03/31 06:11:57;;;;;;;24.23;18.77;;;;;;;6.36;67.67;100744.23;1727875;82;21003;-63
2021/03/31 06:14:37;;;;;;;23.12;16.40;;;;;;;6.40;67.53;100740.98;1749172;81;21153;-65
2021/03/31 06:17:13;;;;;;;29.45;17.90;;;;;;;6.48;67.33;100743.48;1743288;81;21165;-66
2021/03/31 06:19:45;;;;;;;25.52;16.45;;;;;;;6.53;67.27;100741.55;1767409;81;21152;-64
2021/03/31 06:22:32;;;;;;;23.00;18.57;;;;;;;6.59;67.12;100743.44;1756084;81;20972;-64
2021/03/31 06:25:17;;;;;;;26.02;18.07;;;;;;;6.65;67.01;100747.17;1757206;81;21594;-62
2021/03/31 06:27:40;;;;;;;26.52;21.90;;;;;;;6.69;66.89;100740.40;1766649;81;21196;-62
2021/03/31 06:30:13;;;;;;;30.62;22.65;;;;;;;6.74;66.73;100747.31;1768967;81;21193;-64
2021/03/31 06:32:41;;;;;;;33.87;21.90;;;;;;;6.78;66.69;100742.70;1741523;81;21216;-62
2021/03/31 06:35:24;;;;;;;32.65;23.50;;;;;;;6.80;66.68;100743.86;1757440;81;21615;-62
2021/03/31 06:38:07;;;;;;;34.35;22.67;;;;;;;6.78;66.74;100745.37;1764500;81;21563;-63
2021/03/31 06:40:42;;;;;;;32.70;24.27;;;;;;;6.81;66.70;100741.50;1767147;81;21172;-62
2021/03/31 06:43:16;;;;;;;30.57;24.30;;;;;;;6.81;67.00;100739.63;1767292;81;21392;-62
2021/03/31 06:45:50;;;;;;;31.10;21.45;;;;;;;6.82;66.94;100743.95;1766973;81;21164;-64
2021/03/31 06:48:11;;;;;;;24.98;20.77;;;;;;;6.87;66.94;100748.19;1766118;81;21041;-64
2021/03/31 06:50:41;;;;;;;29.00;20.45;;;;;;;6.91;66.97;100745.42;1718421;81;21169;-65
2021/03/31 06:53:09;;;;;;;32.03;21.57;;;;;;;6.95;66.95;100741.32;1767160;81;21176;-62
2021/03/31 06:55:39;;;;;;;28.55;19.77;;;;;;;7.00;67.02;100744.77;1767305;81;21350;-62
2021/03/31 06:58:07;;;;;;;30.95;23.77;;;;;;;7.05;67.00;100742.81;1756480;81;21185;-64
2021/03/31 07:00:38;;;;;;;31.62;22.80;;;;;;;7.09;67.02;100732.85;1736910;82;21162;-64
2021/03/31 07:03:07;;;;;;;34.53;24.12;;;;;;;7.09;67.65;100732.02;1733634;82;21147;-64
2021/03/31 07:05:40;;;;;;;28.30;19.90;;;;;;;7.09;67.63;100732.85;1772551;80;21157;-64
2021/03/31 07:08:11;;;;;;;36.20;25.82;;;;;;;7.13;67.73;100733.27;1779184;80;21361;-63
2021/03/31 07:10:51;;;;;;;25.52;19.48;;;;;;;7.14;67.83;100730.40;1788983;80;21023;-65
2021/03/31 07:13:34;;;;;;;31.15;20.60;;;;;;;7.21;67.87;100730.39;1787633;80;21209;-63
2021/03/31 07:16:05;;;;;;;27.93;20.50;;;;;;;7.23;68.09;100728.35;1788641;80;26121;-62
2021/03/31 07:18:34;;;;;;;39.33;23.22;;;;;;;7.24;68.09;100730.02;1773930;80;21126;-63
2021/03/31 07:21:05;;;;;;;21.82;15.72;;;;;;;7.27;68.10;100722.91;1769806;81;21366;-64
2021/03/31 07:23:32;;;;;;;36.30;24.02;;;;;;;7.33;68.48;100720.25;1770610;81;21142;-65
2021/03/31 07:26:00;;;;;;;25.40;19.42;;;;;;;7.36;68.49;100717.16;1751725;81;21124;-64
2021/03/31 07:28:30;;;;;;;32.33;22.98;;;;;;;7.42;68.67;100711.51;1736992;82;21648;-66
2021/03/31 07:30:58;;;;;;;33.25;23.77;;;;;;;7.42;69.20;100711.51;1711907;82;21191;-64
2021/03/31 07:33:36;;;;;;;31.70;23.47;;;;;;;7.44;69.37;100702.23;1737779;81;21187;-65
2021/03/31 07:36:10;;;;;;;28.50;21.42;;;;;;;7.45;69.71;100707.07;1739945;81;21179;-64
2021/03/31 07:38:39;;;;;;;31.62;22.95;;;;;;;7.53;69.64;100703.39;1744393;81;21142;-64
2021/03/31 07:41:09;;;;;;;30.80;20.48;;;;;;;7.55;69.98;100706.16;1740001;82;21187;-63
2021/03/31 07:43:40;;;;;;;26.77;20.35;;;;;;;7.60;69.56;100702.35;1740135;81;21163;-63
2021/03/31 07:46:17;;;;;;;29.42;19.27;;;;;;;7.62;69.69;100698.97;1739672;81;21914;-64
2021/03/31 07:48:47;;;;;;;26.68;18.90;;;;;;;7.64;69.64;100702.25;1738237;81;21574;-64
2021/03/31 07:51:25;;;;;;;25.05;17.90;;;;;;;7.65;69.71;100695.87;1714232;81;21211;-63
2021/03/31 07:53:57;;;;;;;33.78;18.42;;;;;;;7.68;69.78;100702.14;1771099;81;21048;-64
2021/03/31 07:56:34;;;;;;;26.55;19.35;;;;;;;7.72;69.70;100696.67;1769757;80;21710;-64
2021/03/31 07:59:11;;;;;;;26.25;17.32;;;;;;;7.79;69.60;100692.66;1756779;80;21190;-63
2021/03/31 08:01:46;;;;;;;29.37;19.30;;;;;;;7.85;69.80;100690.51;1739949;82;21035;-63
2021/03/31 08:04:16;;;;;;;21.75;17.82;;;;;;;7.88;69.69;100687.41;1709364;82;21028;-64
2021/03/31 08:06:45;;;;;;;29.77;19.73;;;;;;;7.94;69.62;100693.79;1719131;82;21130;-64
2021/03/31 08:09:33;;;;;;;30.40;21.20;;;;;;;8.00;69.55;100688.95;1758255;81;21150;-65
2021/03/31 08:12:07;;;;;;;27.40;20.48;;;;;;;8.06;69.51;100679.53;1740001;82;21437;-64
2021/03/31 08:14:38;;;;;;;35.50;21.30;;;;;;;8.15;69.34;100678.28;1740098;81;21127;-64
2021/03/31 08:17:10;;;;;;;29.85;17.65;;;;;;;8.24;69.11;100669.52;1760598;78;21177;-62
2021/03/31 08:19:44;;;;;;;23.75;16.97;;;;;;;8.31;69.14;100677.04;1788191;80;21079;-63
2021/03/31 08:22:24;;;;;;;29.23;19.82;;;;;;;8.37;68.98;100665.48;1791789;80;21181;-65
2021/03/31 08:25:13;;;;;;;26.35;18.48;;;;;;;8.49;68.91;100661.64;1792068;79;21312;-65
2021/03/31 08:27:59;;;;;;;24.37;17.82;;;;;;;8.57;68.78;100668.09;1791878;80;21667;-63
2021/03/31 08:30:28;;;;;;;31.12;18.15;;;;;;;8.65;68.67;100668.67;1788312;80;21125;-65
2021/03/31 08:32:56;;;;;;;24.10;17.48;;;;;;;8.69;68.58;100663.17;1777824;80;21058;-64
2021/03/31 08:35:27;;;;;;;22.58;17.42;;;;;;;8.74;68.58;100663.87;1777365;80;21161;-64
2021/03/31 08:37:55;;;;;;;24.55;19.40;;;;;;;8.78;68.53;100658.93;1776644;80;21364;-64
2021/03/31 08:40:24;;;;;;;22.05;13.80;;;;;;;8.84;68.58;100662.89;1774759;80;21205;-67
2021/03/31 08:42:58;;;;;;;31.52;20.20;;;;;;;8.97;68.31;100653.97;1739014;80;21127;-63
2021/03/31 08:45:29;;;;;;;31.10;21.27;;;;;;;9.04;68.31;100662.78;1763052;80;21179;-64
2021/03/31 08:47:58;;;;;;;24.45;16.23;;;;;;;9.11;68.11;100656.33;1786123;80;21544;-64
2021/03/31 08:50:33;;;;;;;23.70;19.50;;;;;;;9.19;67.89;100651.23;1791526;80;21243;-65
2021/03/31 08:53:03;;;;;;;26.85;20.55;;;;;;;9.30;67.81;100652.41;1791995;80;21154;-65
2021/03/31 08:55:34;;;;;;;32.78;21.42;;;;;;;9.42;67.52;100654.16;1792125;80;21109;-63
2021/03/31 08:58:09;;;;;;;21.05;16.77;;;;;;;9.53;67.01;100648.08;1791575;79;21172;-66
2021/03/31 09:03:29;;;;;;;26.65;19.70;;;;;;;9.80;66.34;100658.58;1846905;76;28617;-66
2021/03/31 09:06:02;;;;;;;31.45;20.27;;;;;;;9.80;65.63;100651.34;1817206;79;21031;-64
2021/03/31 09:08:30;;;;;;;29.82;23.27;;;;;;;9.83;65.56;100655.47;1812556;78;23647;-64
2021/03/31 09:11:04;;;;;;;30.32;24.15;;;;;;;9.83;65.02;100650.09;1785374;79;21047;-70
2021/03/31 09:13:35;;;;;;;30.12;19.98;;;;;;;9.86;65.05;100650.98;1785734;80;21028;-66
2021/03/31 09:16:13;;;;;;;28.17;20.15;;;;;;;9.92;64.81;100650.93;1784089;80;21054;-64
2021/03/31 09:18:42;;;;;;;23.15;19.55;;;;;;;9.94;64.72;100643.45;1783448;80;21011;-63
2021/03/31 09:21:12;;;;;;;31.65;21.20;;;;;;;9.98;64.66;100639.27;1783209;79;21187;-65
2021/03/31 09:23:47;;;;;;;30.32;21.37;;;;;;;10.03;64.63;100638.60;1783319;80;21090;-64
2021/03/31 09:26:15;;;;;;;23.40;19.80;;;;;;;10.11;64.10;100638.33;1783280;80;21094;-63
2021/03/31 09:28:45;;;;;;;24.95;19.17;;;;;;;10.19;63.91;100640.74;1785711;79;21464;-64
2021/03/31 09:31:21;;;;;;;26.50;22.07;;;;;;;10.27;63.60;100636.41;1785865;79;21147;-64
2021/03/31 09:33:46;;;;;;;31.73;22.48;;;;;;;10.29;63.25;100641.05;1784357;80;21560;-65
2021/03/31 09:36:17;;;;;;;28.90;20.68;;;;;;;10.36;63.07;100638.29;1768245;79;21138;-62
2021/03/31 09:38:56;;;;;;;30.82;21.73;;;;;;;10.42;62.97;100640.87;1806038;78;21572;-66
2021/03/31 09:41:25;;;;;;;26.35;18.77;;;;;;;10.47;62.83;100635.65;1810771;79;21221;-62
2021/03/31 09:43:53;;;;;;;30.52;23.07;;;;;;;10.50;62.64;100637.08;1800510;79;21141;-61
2021/03/31 09:46:29;;;;;;;24.15;18.90;;;;;;;10.48;62.79;100633.27;1785024;79;23520;-62
2021/03/31 09:48:57;;;;;;;27.93;20.00;;;;;;;10.50;62.81;100641.11;1784776;80;21043;-66
2021/03/31 09:51:25;;;;;;;24.80;17.73;;;;;;;10.54;62.73;100635.58;1788303;79;21169;-66
2021/03/31 09:53:53;;;;;;;27.27;19.52;;;;;;;10.57;62.48;100639.66;1789703;79;21571;-68
2021/03/31 09:56:22;;;;;;;26.30;20.92;;;;;;;10.57;62.52;100641.02;1785132;79;21721;-66
2021/03/31 09:58:50;;;;;;;23.05;18.20;;;;;;;10.60;62.52;100627.92;1784975;79;21246;-66
2021/03/31 10:01:18;;;;;;;22.40;17.32;;;;;;;10.66;62.38;100628.37;1785608;79;21622;-67
2021/03/31 10:03:50;;;;;;;27.50;18.90;;;;;;;10.71;62.19;100625.81;1758587;79;21116;-67
2021/03/31 10:06:21;;;;;;;26.90;18.87;;;;;;;10.70;62.43;100628.20;1785185;80;21638;-67
2021/03/31 10:08:50;;;;;;;26.15;18.05;;;;;;;10.79;62.24;100622.00;1784962;79;21193;-67
2021/03/31 10:11:35;;;;;;;27.55;18.82;;;;;;;10.83;61.94;100628.05;1784992;79;21356;-66
2021/03/31 10:14:05;;;;;;;25.60;17.25;;;;;;;10.83;62.00;100614.59;1784288;79;21180;-66
2021/03/31 10:16:37;;;;;;;27.00;21.12;;;;;;;10.86;61.97;100615.47;1784289;79;21105;-66
2021/03/31 10:19:07;;;;;;;31.10;21.82;;;;;;;10.86;62.01;100611.43;1784294;80;20999;-65
2021/03/31 10:21:38;;;;;;;30.90;22.27;;;;;;;10.85;62.11;100616.51;1815561;79;21122;-66
2021/03/31 10:24:13;;;;;;;27.52;18.95;;;;;;;10.93;62.06;100614.03;1778607;80;21022;-67
2021/03/31 10:26:48;;;;;;;32.67;22.17;;;;;;;10.98;61.95;100614.17;1779561;80;21034;-67
2021/03/31 10:29:23;;;;;;;29.72;19.98;;;;;;;10.98;61.82;100611.48;1784321;79;21234;-66
2021/03/31 10:31:54;;;;;;;28.35;22.40;;;;;;;10.98;61.89;100612.00;1779694;80;21169;-72
2021/03/31 10:34:22;;;;;;;27.20;21.52;;;;;;;11.02;61.85;100614.00;1785023;79;21189;-66
2021/03/31 10:40:15;;;;;;;31.00;22.02;;;;;;;11.09;61.61;100610.67;1791353;79;21148;-67
2021/03/31 10:48:41;;;;;;;37.70;22.62;;;;;;;11.27;61.28;100599.02;1784257;80;21113;-64
2021/03/31 10:53:44;;;;;;;31.48;21.65;;;;;;;11.35;61.00;100602.19;1814278;79;21579;-63
2021/03/31 10:56:13;;;;;;;35.33;24.32;;;;;;;11.37;61.22;100599.23;1816531;79;21588;-63
2021/03/31 10:58:42;;;;;;;36.05;24.02;;;;;;;11.40;61.15;100591.23;1798592;78;21547;-62
2021/03/31 11:01:10;;;;;;;31.25;23.07;;;;;;;11.49;60.90;100588.48;1794775;79;22244;-67
2021/03/31 11:03:38;;;;;;;30.37;22.62;;;;;;;11.60;60.74;100588.50;1790253;78;21194;-64
2021/03/31 11:06:09;;;;;;;33.45;24.87;;;;;;;11.71;60.55;100577.40;1784223;80;21099;-63
2021/03/31 11:08:37;;;;;;;31.12;21.93;;;;;;;11.79;60.32;100577.09;1795761;79;21145;-63
2021/03/31 11:11:11;;;;;;;34.58;24.47;;;;;;;11.87;60.01;100561.89;1816448;79;21006;-65
2021/03/31 11:13:40;;;;;;;28.65;23.60;;;;;;;11.86;59.99;100571.03;1816551;79;21193;-67
2021/03/31 11:16:13;;;;;;;31.75;24.55;;;;;;;11.90;59.90;100573.55;1785810;79;21030;-62
2021/03/31 11:26:39;;;;;;;39.38;25.43;;;;;;;12.22;59.43;100578.01;1809382;79;21149;-64
2021/03/31 11:29:07;;;;;;;31.62;23.80;;;;;;;12.24;58.99;100567.26;1813809;79;21548;-64
2021/03/31 11:31:36;;;;;;;40.90;29.00;;;;;;;12.27;59.06;100565.98;1814913;79;21571;-63
2021/03/31 11:34:06;;;;;;;39.48;25.50;;;;;;;12.28;59.21;100563.54;1809452;79;21527;-63
2021/03/31 11:36:34;;;;;;;35.83;24.57;;;;;;;12.35;58.98;100551.28;1816439;78;21108;-63
2021/03/31 11:39:04;;;;;;;32.42;22.80;;;;;;;12.37;58.89;100548.64;1811293;79;21180;-63
2021/03/31 11:41:34;;;;;;;34.92;26.42;;;;;;;12.38;58.64;100549.44;1784247;79;21669;-66
2021/03/31 11:44:03;;;;;;;33.95;23.15;;;;;;;12.39;58.70;100549.73;1786348;79;21566;-66
2021/03/31 11:46:31;;;;;;;35.08;23.40;;;;;;;12.43;58.74;100540.09;1790494;79;21558;-64
2021/03/31 11:49:00;;;;;;;35.08;25.15;;;;;;;12.46;58.71;100538.28;1784116;79;21034;-63
2021/03/31 11:51:30;;;;;;;33.92;23.95;;;;;;;12.53;58.63;100536.23;1784342;79;21105;-64
2021/03/31 11:53:59;;;;;;;29.05;23.38;;;;;;;12.62;58.49;100538.83;1790089;79;21388;-64
2021/03/31 11:56:26;;;;;;;34.53;25.05;;;;;;;12.73;58.04;100538.48;1806551;78;21101;-64